createdAt,value
2022-10-28T00:00:48.006Z,16.37
2022-10-28T00:03:14.661Z,16.36
2022-10-28T00:05:41.447Z,16.32
2022-10-28T00:08:08.119Z,16.30
2022-10-28T00:10:34.829Z,16.28
2022-10-28T00:13:01.693Z,16.25
2022-10-28T00:15:28.495Z,16.26
2022-10-28T00:17:56.614Z,16.27
2022-10-28T00:20:23.244Z,16.24
2022-10-28T00:22:49.935Z,16.20
2022-10-28T00:25:16.587Z,16.17
2022-10-28T00:27:44.250Z,16.16
2022-10-28T00:30:11.839Z,16.15
2022-10-28T00:32:38.605Z,16.13
2022-10-28T00:35:07.812Z,16.12
2022-10-28T00:37:34.373Z,16.08
2022-10-28T00:40:00.988Z,16.02
2022-10-28T00:42:27.703Z,15.99
2022-10-28T00:44:57.999Z,15.96
2022-10-28T00:47:41.388Z,15.92
2022-10-28T00:50:26.151Z,15.90
2022-10-28T00:52:58.439Z,15.89
2022-10-28T00:55:26.170Z,15.86
2022-10-28T00:57:58.453Z,15.84
2022-10-28T01:00:26.032Z,15.81
2022-10-28T01:02:52.650Z,15.80
2022-10-28T01:05:23.146Z,15.80
2022-10-28T01:07:51.962Z,15.78
2022-10-28T01:10:22.256Z,15.75
2022-10-28T01:13:02.671Z,15.73
2022-10-28T01:15:37.955Z,15.70
2022-10-28T01:18:17.775Z,15.68
2022-10-28T01:21:24.426Z,15.66
2022-10-28T01:24:05.662Z,15.63
2022-10-28T01:27:03.442Z,15.63
2022-10-28T01:29:49.438Z,15.62
2022-10-28T01:32:27.858Z,15.60
2022-10-28T01:35:02.921Z,15.59
2022-10-28T01:37:35.938Z,15.58
2022-10-28T01:40:09.416Z,15.58
2022-10-28T01:42:42.773Z,15.58
2022-10-28T01:45:16.761Z,15.58
2022-10-28T01:47:50.699Z,15.59
2022-10-28T01:50:23.955Z,15.58
2022-10-28T01:52:55.053Z,15.57
2022-10-28T01:55:25.975Z,15.56
2022-10-28T01:57:55.010Z,15.58
2022-10-28T02:00:21.698Z,15.58
2022-10-28T02:02:51.126Z,15.58
2022-10-28T02:05:41.885Z,15.55
2022-10-28T02:08:30.240Z,15.52
2022-10-28T02:11:09.249Z,15.49
2022-10-28T02:13:46.800Z,15.46
2022-10-28T02:16:22.723Z,15.43
2022-10-28T02:19:00.353Z,15.41
2022-10-28T02:21:36.576Z,15.36
2022-10-28T02:24:13.257Z,15.32
2022-10-28T02:26:44.649Z,15.27
2022-10-28T02:29:18.045Z,15.31
2022-10-28T02:31:49.271Z,15.29
2022-10-28T02:34:21.743Z,15.27
2022-10-28T02:36:52.380Z,15.26
2022-10-28T02:39:24.859Z,15.25
2022-10-28T02:41:55.981Z,15.25
2022-10-28T02:44:26.658Z,15.25
2022-10-28T02:46:56.635Z,15.26
2022-10-28T02:49:26.914Z,15.27
2022-10-28T02:51:57.855Z,15.28
2022-10-28T02:54:29.528Z,15.29
2022-10-28T02:57:01.261Z,15.29
2022-10-28T02:59:29.043Z,15.29
2022-10-28T03:01:56.492Z,15.29
2022-10-28T03:04:24.792Z,15.30
2022-10-28T03:06:51.610Z,15.29
2022-10-28T03:09:18.344Z,15.29
2022-10-28T03:11:45.033Z,15.28
2022-10-28T03:14:14.568Z,15.28
2022-10-28T03:16:42.313Z,15.29
2022-10-28T03:21:37.127Z,15.31
2022-10-28T03:24:04.238Z,15.29
2022-10-28T03:26:30.884Z,15.29
2022-10-28T03:28:57.827Z,15.28
2022-10-28T03:31:24.556Z,15.26
2022-10-28T03:33:51.402Z,15.25
2022-10-28T03:36:18.007Z,15.24
2022-10-28T03:38:46.049Z,15.23
2022-10-28T03:41:13.059Z,15.20
2022-10-28T03:43:39.737Z,15.18
2022-10-28T03:46:06.461Z,15.19
2022-10-28T03:48:33.135Z,15.18
2022-10-28T03:51:00.085Z,15.15
2022-10-28T03:53:27.805Z,15.12
2022-10-28T03:56:01.293Z,15.11
2022-10-28T03:58:28.616Z,15.08
2022-10-28T04:00:55.817Z,15.09
2022-10-28T04:03:24.535Z,15.10
2022-10-28T04:05:51.781Z,15.06
2022-10-28T04:08:22.068Z,15.04
2022-10-28T04:10:49.742Z,15.04
2022-10-28T04:13:17.940Z,15.05
2022-10-28T04:15:44.719Z,15.02
2022-10-28T04:18:12.403Z,15.00
2022-10-28T04:20:39.562Z,14.99
2022-10-28T04:23:06.454Z,14.96
2022-10-28T04:25:34.271Z,14.93
2022-10-28T04:28:00.950Z,14.91
2022-10-28T04:30:29.068Z,14.88
2022-10-28T04:32:55.677Z,14.86
2022-10-28T04:35:23.928Z,14.84
2022-10-28T04:37:50.976Z,14.81
2022-10-28T04:40:17.857Z,14.78
2022-10-28T04:42:44.770Z,14.74
2022-10-28T04:45:11.856Z,14.71
2022-10-28T04:47:39.836Z,14.70
2022-10-28T04:50:07.551Z,14.69
2022-10-28T04:52:34.260Z,14.67
2022-10-28T04:55:01.470Z,14.65
2022-10-28T04:57:28.171Z,14.63
2022-10-28T04:59:55.191Z,14.62
2022-10-28T05:02:23.005Z,14.62
2022-10-28T05:04:51.215Z,14.60
2022-10-28T05:07:21.217Z,14.61
2022-10-28T05:09:50.441Z,14.61
2022-10-28T05:12:17.109Z,14.60
2022-10-28T05:14:43.761Z,14.59
2022-10-28T05:17:11.345Z,14.59
2022-10-28T05:19:38.207Z,14.61
2022-10-28T05:22:06.454Z,14.62
2022-10-28T05:24:33.280Z,14.62
2022-10-28T05:27:00.890Z,14.61
2022-10-28T05:29:32.298Z,14.61
2022-10-28T05:32:00.304Z,14.63
2022-10-28T05:34:27.049Z,14.62
2022-10-28T05:36:53.724Z,14.62
2022-10-28T05:39:22.635Z,14.62
2022-10-28T05:41:49.279Z,14.63
2022-10-28T05:44:15.991Z,14.65
2022-10-28T05:46:42.617Z,14.68
2022-10-28T05:49:09.380Z,14.70
2022-10-28T05:51:35.964Z,14.72
2022-10-28T05:54:02.611Z,14.76
2022-10-28T05:56:30.617Z,14.78
2022-10-28T05:58:57.222Z,14.79
2022-10-28T06:01:23.954Z,14.80
2022-10-28T06:03:50.724Z,14.82
2022-10-28T06:06:17.580Z,14.81
2022-10-28T06:08:44.338Z,14.81
2022-10-28T06:11:09.470Z,14.83
2022-10-28T06:13:37.703Z,14.84
2022-10-28T06:16:05.234Z,14.84
2022-10-28T06:18:32.548Z,14.82
2022-10-28T06:20:59.278Z,14.83
2022-10-28T06:23:27.549Z,14.82
2022-10-28T06:28:25.150Z,14.84
2022-10-28T06:30:53.264Z,14.84
2022-10-28T06:33:20.152Z,14.85
2022-10-28T06:35:46.853Z,14.87
2022-10-28T06:38:13.503Z,14.88
2022-10-28T06:40:40.150Z,14.90
2022-10-28T06:43:08.367Z,14.92
2022-10-28T06:45:35.066Z,14.94
2022-10-28T06:48:06.490Z,14.96
2022-10-28T06:50:35.610Z,14.98
2022-10-28T06:53:03.320Z,15.02
2022-10-28T06:55:30.400Z,15.05
2022-10-28T06:58:00.237Z,15.06
2022-10-28T07:00:27.642Z,15.09
2022-10-28T07:02:54.771Z,15.11
2022-10-28T07:05:24.376Z,15.14
2022-10-28T07:07:51.618Z,15.17
2022-10-28T07:10:18.698Z,15.20
2022-10-28T07:12:45.578Z,15.24
2022-10-28T07:15:12.671Z,15.27
2022-10-28T07:17:39.587Z,15.29
2022-10-28T07:20:07.468Z,15.34
2022-10-28T07:22:35.542Z,15.36
2022-10-28T07:25:02.354Z,15.40
2022-10-28T07:27:28.958Z,15.42
2022-10-28T07:29:55.650Z,15.46
2022-10-28T07:32:22.273Z,15.49
2022-10-28T07:34:49.113Z,15.53
2022-10-28T07:37:15.972Z,15.56
2022-10-28T07:39:44.052Z,15.60
2022-10-28T07:42:10.718Z,15.63
2022-10-28T07:44:37.456Z,15.65
2022-10-28T07:47:04.452Z,15.70
2022-10-28T07:49:31.307Z,15.74
2022-10-28T07:51:58.105Z,15.77
2022-10-28T07:54:25.113Z,15.80
2022-10-28T07:56:53.189Z,15.84
2022-10-28T07:59:25.818Z,15.87
2022-10-28T08:01:55.392Z,15.91
2022-10-28T08:04:22.371Z,15.95
2022-10-28T08:06:49.047Z,15.99
2022-10-28T08:09:16.804Z,16.04
2022-10-28T08:11:43.786Z,16.09
2022-10-28T08:14:11.965Z,16.14
2022-10-28T08:16:38.786Z,16.19
2022-10-28T08:19:07.842Z,16.22
2022-10-28T08:21:35.550Z,16.28
2022-10-28T08:24:02.311Z,16.34
2022-10-28T08:26:29.088Z,16.41
2022-10-28T08:28:56.627Z,16.46
2022-10-28T08:31:24.609Z,16.51
2022-10-28T08:33:51.534Z,16.57
2022-10-28T08:36:18.358Z,16.61
2022-10-28T08:38:46.219Z,16.67
2022-10-28T08:41:32.136Z,16.72
2022-10-28T08:44:46.731Z,16.77
2022-10-28T08:47:29.410Z,16.81
2022-10-28T08:50:01.013Z,16.85
2022-10-28T08:52:31.622Z,16.89
2022-10-28T08:55:02.783Z,16.94
2022-10-28T08:57:36.513Z,16.98
2022-10-28T09:00:06.662Z,17.03
2022-10-28T09:02:48.204Z,17.07
2022-10-28T09:05:21.722Z,17.13
2022-10-28T09:07:49.068Z,17.18
2022-10-28T09:10:17.878Z,17.21
2022-10-28T09:12:55.212Z,17.27
2022-10-28T09:15:34.097Z,17.34
2022-10-28T09:18:08.670Z,17.37
2022-10-28T09:20:48.045Z,17.40
2022-10-28T09:23:22.447Z,17.46
2022-10-28T09:26:00.472Z,17.53
2022-10-28T09:28:40.101Z,17.59
2022-10-28T09:31:15.109Z,17.66
2022-10-28T09:33:54.250Z,17.72
2022-10-28T09:36:25.207Z,17.78
2022-10-28T09:38:55.252Z,17.84
2022-10-28T09:41:25.878Z,17.91
2022-10-28T09:43:59.388Z,17.99
2022-10-28T09:46:33.226Z,18.06
2022-10-28T09:49:11.227Z,18.13
2022-10-28T09:51:46.320Z,18.19
2022-10-28T09:54:14.137Z,18.24
2022-10-28T09:56:41.600Z,18.32
2022-10-28T09:59:13.511Z,18.39
2022-10-28T10:01:44.074Z,18.44
2022-10-28T10:04:19.245Z,18.49
2022-10-28T10:06:49.651Z,18.56
2022-10-28T10:09:21.700Z,18.61
2022-10-28T10:11:50.506Z,18.66
2022-10-28T10:14:21.500Z,18.71
2022-10-28T10:16:54.019Z,18.76
2022-10-28T10:19:22.354Z,18.81
2022-10-28T10:21:50.440Z,18.86
2022-10-28T10:24:31.148Z,18.92
2022-10-28T10:27:00.319Z,18.95
2022-10-28T10:29:29.108Z,18.99
2022-10-28T10:32:16.621Z,19.04
2022-10-28T10:34:50.625Z,19.09
2022-10-28T10:37:19.227Z,19.13
2022-10-28T10:39:46.182Z,19.16
2022-10-28T10:42:18.115Z,19.22
2022-10-28T10:44:45.523Z,19.26
2022-10-28T10:47:21.133Z,19.31
2022-10-28T10:49:49.868Z,19.36
2022-10-28T10:52:20.260Z,19.40
2022-10-28T10:55:02.839Z,19.45
2022-10-28T10:57:31.142Z,19.51
2022-10-28T10:59:58.244Z,19.57
2022-10-28T11:02:28.314Z,19.62
2022-10-28T11:04:59.708Z,19.68
2022-10-28T11:07:28.368Z,19.74
2022-10-28T11:09:55.951Z,19.81
2022-10-28T11:12:29.401Z,19.86
2022-10-28T11:14:59.112Z,19.91
2022-10-28T11:17:27.879Z,19.97
2022-10-28T11:19:59.458Z,20.01
2022-10-28T11:22:39.305Z,20.08
2022-10-28T11:25:26.959Z,20.12
2022-10-28T11:28:05.289Z,20.15
2022-10-28T11:30:45.508Z,20.19
2022-10-28T11:33:30.096Z,20.23
2022-10-28T11:36:07.167Z,20.29
2022-10-28T11:39:01.887Z,20.32
2022-10-28T11:41:39.271Z,20.36
2022-10-28T11:44:18.554Z,20.40
2022-10-28T11:47:00.966Z,20.45
2022-10-28T11:50:20.374Z,20.51
2022-10-28T11:53:21.958Z,20.55
2022-10-28T11:55:56.611Z,20.59
2022-10-28T11:58:32.481Z,20.63
2022-10-28T12:01:18.407Z,20.68
2022-10-28T12:04:05.383Z,20.73
2022-10-28T12:06:51.886Z,20.76
2022-10-28T12:09:27.939Z,20.82
2022-10-28T12:12:08.468Z,20.86
2022-10-28T12:14:48.412Z,20.90
2022-10-28T12:17:20.760Z,20.93
2022-10-28T12:19:53.790Z,20.97
2022-10-28T12:22:26.039Z,21.00
2022-10-28T12:24:56.053Z,21.04
2022-10-28T12:27:27.648Z,21.07
2022-10-28T12:30:00.082Z,21.11
2022-10-28T12:32:30.246Z,21.17
2022-10-28T12:35:05.398Z,21.19
2022-10-28T12:37:37.001Z,21.22
2022-10-28T12:40:13.079Z,21.27
2022-10-28T12:42:47.573Z,21.30
2022-10-28T12:45:17.301Z,21.34
2022-10-28T12:47:49.998Z,21.38
2022-10-28T12:50:25.626Z,21.40
2022-10-28T12:52:58.978Z,21.42
2022-10-28T12:55:35.419Z,21.43
2022-10-28T12:58:10.703Z,21.44
2022-10-28T13:00:43.560Z,21.47
2022-10-28T13:03:14.421Z,21.49
2022-10-28T13:05:45.115Z,21.51
2022-10-28T13:08:43.843Z,21.53
2022-10-28T13:11:53.860Z,21.55
2022-10-28T13:14:56.312Z,21.55
2022-10-28T13:17:35.571Z,21.55
2022-10-28T13:20:17.486Z,21.57
2022-10-28T13:23:04.421Z,21.54
2022-10-28T13:25:56.746Z,21.53
2022-10-28T13:28:29.710Z,21.50
2022-10-28T13:31:02.062Z,21.50
2022-10-28T13:33:30.491Z,21.48
2022-10-28T13:36:11.254Z,21.47
2022-10-28T13:38:40.363Z,21.45
2022-10-28T13:41:29.005Z,21.43
2022-10-28T13:44:37.601Z,21.40
2022-10-28T13:47:29.224Z,21.39
2022-10-28T13:50:33.414Z,21.37
2022-10-28T13:53:43.302Z,21.35
2022-10-28T13:56:45.891Z,21.33
2022-10-28T13:59:21.984Z,21.33
2022-10-28T14:02:02.226Z,21.32
2022-10-28T14:04:44.018Z,21.30
2022-10-28T14:07:21.636Z,21.30
2022-10-28T14:09:52.371Z,21.29
2022-10-28T14:12:24.654Z,21.29
2022-10-28T14:15:05.161Z,21.28
2022-10-28T14:17:37.858Z,21.26
2022-10-28T14:20:22.156Z,21.24
2022-10-28T14:22:49.575Z,21.24
2022-10-28T14:25:54.587Z,21.24
2022-10-28T14:28:52.169Z,21.22
2022-10-28T14:31:21.043Z,21.19
2022-10-28T14:34:27.348Z,21.19
2022-10-28T14:37:11.828Z,21.17
2022-10-28T14:39:48.475Z,21.15
2022-10-28T14:42:32.732Z,21.15
2022-10-28T14:45:18.211Z,21.16
2022-10-28T14:48:07.793Z,21.14
2022-10-28T14:50:39.835Z,21.12
2022-10-28T14:53:14.147Z,21.11
2022-10-28T14:55:46.339Z,21.08
2022-10-28T14:58:21.097Z,21.07
2022-10-28T15:00:56.559Z,21.05
2022-10-28T15:03:23.866Z,21.03
2022-10-28T15:05:50.467Z,21.02
2022-10-28T15:08:21.902Z,21.01
2022-10-28T15:10:49.855Z,20.99
2022-10-28T15:13:19.030Z,20.97
2022-10-28T15:15:52.422Z,20.97
2022-10-28T15:18:22.787Z,20.94
2022-10-28T15:20:50.161Z,20.91
2022-10-28T15:23:21.994Z,20.90
2022-10-28T15:26:06.697Z,20.87
2022-10-28T15:28:33.694Z,20.85
2022-10-28T15:31:00.324Z,20.83
2022-10-28T15:33:30.365Z,20.82
2022-10-28T15:36:08.421Z,20.79
2022-10-28T15:38:40.206Z,20.77
2022-10-28T15:41:39.468Z,20.77
2022-10-28T15:44:06.395Z,20.73
2022-10-28T15:46:33.949Z,20.68
2022-10-28T15:49:02.270Z,20.65
2022-10-28T15:51:31.874Z,20.63
2022-10-28T15:54:11.157Z,20.62
2022-10-28T15:56:53.861Z,20.60
2022-10-28T15:59:22.427Z,20.58
2022-10-28T16:01:49.353Z,20.56
2022-10-28T16:04:46.133Z,20.54
2022-10-28T16:07:13.062Z,20.51
2022-10-28T16:09:46.820Z,20.50
2022-10-28T16:12:16.393Z,20.48
2022-10-28T16:14:44.716Z,20.45
2022-10-28T16:17:17.896Z,20.43
2022-10-28T16:19:50.406Z,20.42
2022-10-28T16:22:18.404Z,20.39
2022-10-28T16:24:46.612Z,20.37
2022-10-28T16:27:16.905Z,20.35
2022-10-28T16:29:46.669Z,20.34
2022-10-28T16:32:15.066Z,20.33
2022-10-28T16:34:42.132Z,20.31
2022-10-28T16:37:24.915Z,20.29
2022-10-28T16:39:59.495Z,20.25
2022-10-28T16:42:27.840Z,20.22
2022-10-28T16:44:59.538Z,20.21
2022-10-28T16:47:29.579Z,20.18
2022-10-28T16:49:58.287Z,20.13
2022-10-28T16:52:29.011Z,20.08
2022-10-28T16:55:02.941Z,20.04
2022-10-28T16:57:29.724Z,20.00
2022-10-28T16:59:56.509Z,19.97
2022-10-28T17:02:28.270Z,19.94
2022-10-28T17:04:58.077Z,19.90
2022-10-28T17:07:24.958Z,19.86
2022-10-28T17:09:54.598Z,19.82
2022-10-28T17:12:31.928Z,19.78
2022-10-28T17:14:58.654Z,19.72
2022-10-28T17:17:25.458Z,19.67
2022-10-28T17:19:52.133Z,19.61
2022-10-28T17:22:18.874Z,19.55
2022-10-28T17:24:46.109Z,19.49
2022-10-28T17:27:13.906Z,19.45
2022-10-28T17:29:41.899Z,19.39
2022-10-28T17:32:08.811Z,19.35
2022-10-28T17:34:35.924Z,19.31
2022-10-28T17:37:02.761Z,19.28
2022-10-28T17:39:29.559Z,19.24
2022-10-28T17:41:56.442Z,19.21
2022-10-28T17:44:24.006Z,19.17
2022-10-28T17:46:52.277Z,19.15
2022-10-28T17:49:19.443Z,19.12
2022-10-28T17:51:46.558Z,19.09
2022-10-28T17:54:13.382Z,19.05
2022-10-28T17:56:42.515Z,19.03
2022-10-28T17:59:09.616Z,19.00
2022-10-28T18:01:37.336Z,19.00
2022-10-28T18:04:06.433Z,18.98
2022-10-28T18:06:34.167Z,18.98
2022-10-28T18:09:00.993Z,18.96
2022-10-28T18:11:30.176Z,18.96
2022-10-28T18:13:57.157Z,18.93
2022-10-28T18:16:27.876Z,18.91
2022-10-28T18:18:55.493Z,18.90
2022-10-28T18:21:24.664Z,18.85
2022-10-28T18:23:52.754Z,18.81
2022-10-28T18:26:30.639Z,18.78
2022-10-28T18:28:57.817Z,18.73
2022-10-28T18:31:27.100Z,18.70
2022-10-28T18:33:53.737Z,18.66
2022-10-28T18:36:23.623Z,18.62
2022-10-28T18:38:51.081Z,18.60
2022-10-28T18:41:19.140Z,18.55
2022-10-28T18:43:46.142Z,18.50
2022-10-28T18:46:13.561Z,18.46
2022-10-28T18:48:40.714Z,18.43
2022-10-28T18:51:10.400Z,18.40
2022-10-28T18:53:40.119Z,18.37
2022-10-28T18:56:08.627Z,18.31
2022-10-28T18:58:35.874Z,18.26
2022-10-28T19:01:08.128Z,18.25
2022-10-28T19:03:35.679Z,18.23
2022-10-28T19:06:03.212Z,18.22
2022-10-28T19:08:30.061Z,18.22
2022-10-28T19:10:58.988Z,18.23
2022-10-28T19:13:26.034Z,18.22
2022-10-28T19:15:53.189Z,18.18
2022-10-28T19:18:20.225Z,18.17
2022-10-28T19:20:46.892Z,18.14
2022-10-28T19:23:13.675Z,18.12
2022-10-28T19:25:40.454Z,18.08
2022-10-28T19:28:11.070Z,18.05
2022-10-28T19:30:37.717Z,18.01
2022-10-28T19:33:04.437Z,17.98
2022-10-28T19:35:33.678Z,17.97
2022-10-28T19:38:00.172Z,17.96
2022-10-28T19:40:26.821Z,17.96
2022-10-28T19:42:53.948Z,17.97
2022-10-28T19:45:22.298Z,17.99
2022-10-28T19:47:49.674Z,17.97
2022-10-28T19:50:16.709Z,17.96
2022-10-28T19:52:43.761Z,17.95
2022-10-28T19:55:14.810Z,17.91
2022-10-28T19:57:41.843Z,17.88
2022-10-28T20:00:10.036Z,17.86
2022-10-28T20:02:38.680Z,17.86
2022-10-28T20:05:06.522Z,17.83
2022-10-28T20:07:33.201Z,17.81
2022-10-28T20:12:27.322Z,17.81
2022-10-28T20:14:54.712Z,17.79
2022-10-28T20:17:21.513Z,17.78
2022-10-28T20:19:49.797Z,17.75
2022-10-28T20:22:17.706Z,17.73
2022-10-28T20:24:44.362Z,17.69
2022-10-28T20:27:11.202Z,17.67
2022-10-28T20:29:37.934Z,17.62
2022-10-28T20:32:04.717Z,17.59
2022-10-28T20:34:32.845Z,17.56
2022-10-28T20:37:00.851Z,17.55
2022-10-28T20:39:27.628Z,17.55
2022-10-28T20:41:56.630Z,17.54
2022-10-28T20:44:23.506Z,17.53
2022-10-28T20:46:50.431Z,17.52
2022-10-28T20:49:17.077Z,17.51
2022-10-28T20:51:44.709Z,17.50
2022-10-28T20:54:15.162Z,17.47
2022-10-28T20:56:43.363Z,17.43
2022-10-28T20:59:10.587Z,17.40
2022-10-28T21:01:42.200Z,17.39
2022-10-28T21:04:10.873Z,17.38
2022-10-28T21:06:38.488Z,17.36
2022-10-28T21:09:05.654Z,17.35
2022-10-28T21:11:34.056Z,17.34
2022-10-28T21:14:02.008Z,17.32
2022-10-28T21:16:32.668Z,17.30
2022-10-28T21:18:59.641Z,17.27
2022-10-28T21:21:27.317Z,17.22
2022-10-28T21:23:54.221Z,17.20
2022-10-28T21:26:21.048Z,17.16
2022-10-28T21:28:50.735Z,17.12
2022-10-28T21:31:18.626Z,17.10
2022-10-28T21:33:47.013Z,17.08
2022-10-28T21:36:23.414Z,17.05
2022-10-28T21:38:57.125Z,17.03
2022-10-28T21:41:24.907Z,17.02
2022-10-28T21:43:54.386Z,16.97
2022-10-28T21:46:22.303Z,16.93
2022-10-28T21:48:49.469Z,16.88
2022-10-28T21:51:17.648Z,16.84
2022-10-28T21:53:45.776Z,16.80
2022-10-28T21:56:18.296Z,16.77
2022-10-28T21:58:46.584Z,16.72
2022-10-28T22:01:17.990Z,16.70
2022-10-28T22:03:44.634Z,16.68
2022-10-28T22:06:11.379Z,16.64
2022-10-28T22:08:38.216Z,16.59
2022-10-28T22:11:06.795Z,16.56
2022-10-28T22:13:34.471Z,16.54
2022-10-28T22:16:03.770Z,16.54
2022-10-28T22:18:33.513Z,16.53
2022-10-28T22:21:04.614Z,16.53
2022-10-28T22:23:32.061Z,16.52
2022-10-28T22:26:00.900Z,16.51
2022-10-28T22:28:27.832Z,16.48
2022-10-28T22:31:01.186Z,16.48
2022-10-28T22:33:28.009Z,16.43
2022-10-28T22:35:59.894Z,16.42
2022-10-28T22:38:27.390Z,16.41
2022-10-28T22:41:05.578Z,16.41
2022-10-28T22:43:32.348Z,16.35
2022-10-28T22:45:59.668Z,16.34
2022-10-28T22:48:28.106Z,16.32
2022-10-28T22:50:54.916Z,16.30
2022-10-28T22:53:23.210Z,16.28
2022-10-28T22:55:52.580Z,16.28
2022-10-28T22:58:19.544Z,16.28
2022-10-28T23:00:46.869Z,16.26
2022-10-28T23:03:13.996Z,16.25
2022-10-28T23:05:41.185Z,16.26
2022-10-28T23:08:08.657Z,16.24
2022-10-28T23:10:36.647Z,16.23
2022-10-28T23:13:03.703Z,16.22
2022-10-28T23:15:30.520Z,16.23
2022-10-28T23:17:57.747Z,16.24
2022-10-28T23:20:25.396Z,16.26
2022-10-28T23:22:55.276Z,16.25
2022-10-28T23:25:21.951Z,16.25
2022-10-28T23:27:52.690Z,16.23
2022-10-28T23:30:19.678Z,16.19
2022-10-28T23:32:46.337Z,16.16
2022-10-28T23:35:13.071Z,16.13
2022-10-28T23:37:39.793Z,16.09
2022-10-28T23:40:07.162Z,16.07
2022-10-28T23:42:33.838Z,16.04
2022-10-28T23:45:02.288Z,16.03
2022-10-28T23:47:29.137Z,16.00
2022-10-28T23:49:55.860Z,15.97
2022-10-28T23:52:22.866Z,15.95
2022-10-28T23:54:49.510Z,15.91
2022-10-28T23:57:16.391Z,15.85
2022-10-28T23:59:43.005Z,15.83
